John H. — WAC6768 — position and weather

sailwx.info

Track history (hours):
 
Tides and Currents Weather Stations Pressure Air Temp Water Temp Dewpoint Dewpoint Depression Visibility Wind Speed Wind Dir Waves Ship Positions

John H.

Owner: CROSS SOUND FERRY SERVICE INC, NEW LOUDON, CT. More information available from US FCC via Universal Licensing System and Coast Guard Vessel Documentation Center.

Last reported at 2014-Nov-25 23:33 UTC. Time now 2014-Nov-26 00:21 UTC.
Position N 41°09' W 072°14'.

Length 70 m.

Type: Passenger vessel. MMSI: 366934890.

Date/timePositionNaut miles runAvg speedWind from/ knotsBaromVisibWave heightAir tempDewpointWater temp
2014-Nov-25 23:33N 41°09' W 072°14'9 9.0
2014-Nov-25 22:33N 41°16' W 072°07'5 5.2
2014-Nov-25 21:33N 41°21' W 072°06'9 8.8
2014-Nov-25 20:33N 41°13' W 072°10'5 5.2
2014-Nov-25 19:33N 41°09' W 072°14'9 9.5
2014-Nov-25 18:33N 41°17' W 072°06'5 4.8
2014-Nov-25 17:33N 41°21' W 072°06'9 8.9
2014-Nov-25 16:33N 41°13' W 072°10'5 5.0
2014-Nov-25 15:34N 41°09' W 072°14'9 9.1
2014-Nov-25 14:34N 41°16' W 072°07'5 5.1
2014-Nov-25 13:34N 41°21' W 072°06'9 9.4
2014-Nov-25 12:34N 41°13' W 072°11'4 4.4
2014-Nov-25 11:33N 41°09' W 072°14'0 0.0
2014-Nov-25 01:33N 41°09' W 072°14'9 9.5
2014-Nov-25 00:33N 41°17' W 072°06'5 4.8
2014-Nov-24 23:34N 41°21' W 072°06'9 8.6
2014-Nov-24 22:34N 41°13' W 072°10'5 5.4
2014-Nov-24 21:33N 41°09' W 072°14'8 8.2
2014-Nov-24 20:34N 41°16' W 072°07'6 6.0
2014-Nov-24 19:34N 41°21' W 072°06'9 8.8
2014-Nov-24 18:34N 41°13' W 072°10'5 5.0
2014-Nov-24 17:32N 41°09' W 072°14'1010.1
2014-Nov-24 16:33N 41°17' W 072°06'4 3.8
2014-Nov-24 15:33N 41°21' W 072°05'1111.0
2014-Nov-24 14:33N 41°11' W 072°13'2 2.3
2014-Nov-24 13:33N 41°09' W 072°14'9 9.2
2014-Nov-24 12:33N 41°16' W 072°07'5 5.0
2014-Nov-24 11:33N 41°21' W 072°06'0 0.0
2014-Nov-24 01:34N 41°21' W 072°06'9 9.2
2014-Nov-24 00:34N 41°13' W 072°11'5 4.7
2014-Nov-23 23:33N 41°09' W 072°14'9 8.7
2014-Nov-23 22:33N 41°16' W 072°07'5 5.4
2014-Nov-23 21:33N 41°21' W 072°06'9 9.1
2014-Nov-23 20:34N 41°13' W 072°10'5 4.8
2014-Nov-23 19:33N 41°09' W 072°14'9 9.4
2014-Nov-23 18:33N 41°16' W 072°06'5 5.0
2014-Nov-23 17:33N 41°21' W 072°05'1010.1
2014-Nov-23 16:33N 41°12' W 072°12'4 3.8
2014-Nov-23 15:33N 41°09' W 072°14'10 9.7
2014-Nov-23 14:33N 41°17' W 072°06'5 4.6
2014-Nov-23 13:33N 41°21' W 072°06'9 8.9
2014-Nov-23 12:33N 41°13' W 072°11'5 4.9
2014-Nov-23 11:33N 41°09' W 072°14'0 0.0
2014-Nov-23 02:06N 41°09' W 072°14'2 3.1
2014-Nov-23 01:33N 41°11' W 072°14'1212.2
2014-Nov-23 00:33N 41°21' W 072°05'0 0.3
2014-Nov-22 23:33N 41°21' W 072°06'9 9.4
2014-Nov-22 22:33N 41°13' W 072°11'5 4.5
2014-Nov-22 21:33N 41°09' W 072°14'8 8.4
2014-Nov-22 20:33N 41°16' W 072°08'6 5.7
2014-Nov-22 19:33N 41°21' W 072°06'10 9.6
2014-Nov-22 18:33N 41°13' W 072°11'4 4.3
2014-Nov-22 17:33N 41°09' W 072°14'9 9.1
2014-Nov-22 16:34N 41°16' W 072°07'5 5.1
2014-Nov-22 15:34N 41°21' W 072°06'9 8.9
2014-Nov-22 14:33N 41°13' W 072°10'5 5.0
2014-Nov-22 13:34N 41°09' W 072°14'8 8.0
2014-Nov-22 12:33N 41°16' W 072°08'6 6.0
2014-Nov-22 11:33N 41°21' W 072°06'0 0.0
2014-Nov-22 01:27N 41°21' W 072°06'9 9.6
2014-Nov-22 00:34N 41°13' W 072°10'5 5.4
2014-Nov-21 23:34N 41°09' W 072°14'9 9.2
2014-Nov-21 22:33N 41°16' W 072°07'5 5.0
2014-Nov-21 21:34N 41°21' W 072°06'10 9.7
2014-Nov-21 20:33N 41°12' W 072°11'4 4.2
2014-Nov-21 19:33N 41°09' W 072°14'9 8.8
2014-Nov-21 18:33N 41°16' W 072°07'5 5.4
2014-Nov-21 17:33N 41°21' W 072°06'9 8.8
2014-Nov-21 16:33N 41°13' W 072°10'5 5.2
2014-Nov-21 15:34N 41°09' W 072°14'9 9.1
2014-Nov-21 14:33N 41°16' W 072°06'5 5.4
2014-Nov-21 13:33N 41°21' W 072°06'10 9.7
2014-Nov-21 12:33N 41°13' W 072°11'4 4.2
2014-Nov-21 11:34N 41°09' W 072°14'2 0.2
2014-Nov-21 01:33N 41°09' W 072°12'8 8.4
2014-Nov-21 00:33N 41°16' W 072°06'5 5.2
2014-Nov-20 23:33N 41°21' W 072°06'10 9.9
2014-Nov-20 22:33N 41°12' W 072°11'4 4.0
2014-Nov-20 21:34N 41°09' W 072°14'9 9.3
2014-Nov-20 20:33N 41°16' W 072°07'5 5.0
2014-Nov-20 19:33N 41°21' W 072°06'0 0.0
2014-Nov-20 18:33N 41°21' W 072°06'0 0.0
2014-Nov-20 17:33N 41°21' W 072°06'0 0.0
2014-Nov-20 16:33N 41°21' W 072°06'0 0.0
2014-Nov-20 15:33N 41°21' W 072°06'9 8.8
2014-Nov-20 14:33N 41°13' W 072°10'5 5.1
2014-Nov-20 13:33N 41°09' W 072°14'9 9.3
2014-Nov-20 12:33N 41°17' W 072°07'5 4.8
2014-Nov-20 11:33N 41°21' W 072°06'0 0.0
2014-Nov-20 01:32N 41°21' W 072°06'9 9.1
2014-Nov-20 00:34N 41°13' W 072°10'5 5.1
2014-Nov-19 23:33N 41°09' W 072°14'9 8.8
2014-Nov-19 22:33N 41°16' W 072°07'5 5.3
2014-Nov-19 21:33N 41°21' W 072°06'9 8.9
2014-Nov-19 20:33N 41°13' W 072°10'5 5.1
2014-Nov-19 19:33N 41°09' W 072°14'9 8.6
2014-Nov-19 18:33N 41°16' W 072°07'5 5.4
2014-Nov-19 17:33N 41°21' W 072°06'10 9.8
2014-Nov-19 16:34N 41°12' W 072°11'3 2.8
2014-Nov-19 15:33N 41°11' W 072°14'1111.4
2014-Nov-19 14:34N 41°20' W 072°05'5 4.7
2014-Nov-19 13:33N 41°16' W 072°07'8 8.2
2014-Nov-19 12:33N 41°09' W 072°14'0 0.0
2014-Nov-19 01:33N 41°09' W 072°14'10 9.6
2014-Nov-19 00:33N 41°17' W 072°06'5 4.8
2014-Nov-18 23:33N 41°21' W 072°05'1010.3
2014-Nov-18 22:33N 41°12' W 072°12'4 3.6
2014-Nov-18 21:34N 41°09' W 072°14'9 9.3
2014-Nov-18 20:33N 41°16' W 072°07'5 4.9
2014-Nov-18 19:34N 41°21' W 072°06'9 8.6
2014-Nov-18 18:33N 41°13' W 072°10'5 5.0
2014-Nov-18 17:33N 41°09' W 072°13'1010.1
2014-Nov-18 16:33N 41°17' W 072°05'5 4.6
2014-Nov-18 15:33N 41°21' W 072°05'1111.3
2014-Nov-18 14:34N 41°12' W 072°13'3 2.7
2014-Nov-18 13:33N 41°09' W 072°14'10 9.5
2014-Nov-18 12:33N 41°17' W 072°06'5 4.7
2014-Nov-18 11:34N 41°21' W 072°06'0 0.0
2014-Nov-18 01:30N 41°21' W 072°06'9 9.2
2014-Nov-18 00:33N 41°13' W 072°10'5 5.4
2014-Nov-17 23:33N 41°09' W 072°14'8 8.2
2014-Nov-17 22:33N 41°16' W 072°07'6 5.9
2014-Nov-17 21:33N 41°21' W 072°06'9 9.1
2014-Nov-17 20:33N 41°13' W 072°11'5 4.8
2014-Nov-17 19:33N 41°09' W 072°14'1010.2
2014-Nov-17 18:33N 41°17' W 072°06'4 4.1
2014-Nov-17 17:33N 41°21' W 072°06'9 9.4
2014-Nov-17 16:33N 41°13' W 072°11'3 3.2
2014-Nov-17 15:33N 41°10' W 072°13'1211.6
2014-Nov-17 14:33N 41°20' W 072°05'2 1.9
2014-Nov-17 13:33N 41°18' W 072°05'1111.3
2014-Nov-17 12:34N 41°09' W 072°14'0 0.2
2014-Nov-17 11:33N 41°09' W 072°14'0 0.0
2014-Nov-17 02:34N 41°09' W 072°14'9 9.0
2014-Nov-17 01:33N 41°16' W 072°07'5 5.2
2014-Nov-17 00:33N 41°21' W 072°06'9 9.3
2014-Nov-16 23:33N 41°13' W 072°10'5 4.7
2014-Nov-16 22:33N 41°09' W 072°14'9 9.0
2014-Nov-16 21:33N 41°16' W 072°07'5 5.2
2014-Nov-16 20:34N 41°21' W 072°06'9 9.0
2014-Nov-16 19:34N 41°13' W 072°10'5 5.0
2014-Nov-16 18:33N 41°09' W 072°14'9 9.0
2014-Nov-16 17:33N 41°16' W 072°07'5 5.1
2014-Nov-16 16:33N 41°21' W 072°06'9 9.2
2014-Nov-16 15:34N 41°13' W 072°10'5 4.8
2014-Nov-16 14:34N 41°09' W 072°14'1110.7
2014-Nov-16 13:33N 41°18' W 072°06'4 3.7
2014-Nov-16 12:33N 41°21' W 072°06'3 0.2
2014-Nov-16 01:33N 41°19' W 072°05'1211.8
2014-Nov-16 00:33N 41°09' W 072°14'0 0.1
2014-Nov-15 23:33N 41°09' W 072°14'  
Track history (hours):
 
Tides and Currents Weather Stations Pressure Air Temp Water Temp Dewpoint Dewpoint Depression Visibility Wind Speed Wind Dir Waves Ship Positions

John H.

Owner: CROSS SOUND FERRY SERVICE INC, NEW LOUDON, CT. More information available from US FCC via Universal Licensing System and Coast Guard Vessel Documentation Center.

Last reported at 2014-Nov-25 23:33 UTC. Time now 2014-Nov-26 00:21 UTC.
Position N 41°09' W 072°14'.

Length 70 m.

Type: Passenger vessel. MMSI: 366934890.

Date/timePositionNaut miles runAvg speedWind from/ knotsBaromVisibWave heightAir tempDewpointWater temp
2014-Nov-25 23:33N 41°09' W 072°14'9 9.0
2014-Nov-25 22:33N 41°16' W 072°07'5 5.2
2014-Nov-25 21:33N 41°21' W 072°06'9 8.8
2014-Nov-25 20:33N 41°13' W 072°10'5 5.2
2014-Nov-25 19:33N 41°09' W 072°14'9 9.5
2014-Nov-25 18:33N 41°17' W 072°06'5 4.8
2014-Nov-25 17:33N 41°21' W 072°06'9 8.9
2014-Nov-25 16:33N 41°13' W 072°10'5 5.0
2014-Nov-25 15:34N 41°09' W 072°14'9 9.1
2014-Nov-25 14:34N 41°16' W 072°07'5 5.1
2014-Nov-25 13:34N 41°21' W 072°06'9 9.4
2014-Nov-25 12:34N 41°13' W 072°11'4 4.4
2014-Nov-25 11:33N 41°09' W 072°14'0 0.0
2014-Nov-25 01:33N 41°09' W 072°14'9 9.5
2014-Nov-25 00:33N 41°17' W 072°06'5 4.8
2014-Nov-24 23:34N 41°21' W 072°06'9 8.6
2014-Nov-24 22:34N 41°13' W 072°10'5 5.4
2014-Nov-24 21:33N 41°09' W 072°14'8 8.2
2014-Nov-24 20:34N 41°16' W 072°07'6 6.0
2014-Nov-24 19:34N 41°21' W 072°06'9 8.8
2014-Nov-24 18:34N 41°13' W 072°10'5 5.0
2014-Nov-24 17:32N 41°09' W 072°14'1010.1
2014-Nov-24 16:33N 41°17' W 072°06'4 3.8
2014-Nov-24 15:33N 41°21' W 072°05'1111.0
2014-Nov-24 14:33N 41°11' W 072°13'2 2.3
2014-Nov-24 13:33N 41°09' W 072°14'9 9.2
2014-Nov-24 12:33N 41°16' W 072°07'5 5.0
2014-Nov-24 11:33N 41°21' W 072°06'0 0.0
2014-Nov-24 01:34N 41°21' W 072°06'9 9.2
2014-Nov-24 00:34N 41°13' W 072°11'5 4.7
2014-Nov-23 23:33N 41°09' W 072°14'9 8.7
2014-Nov-23 22:33N 41°16' W 072°07'5 5.4
2014-Nov-23 21:33N 41°21' W 072°06'9 9.1
2014-Nov-23 20:34N 41°13' W 072°10'5 4.8
2014-Nov-23 19:33N 41°09' W 072°14'9 9.4
2014-Nov-23 18:33N 41°16' W 072°06'5 5.0
2014-Nov-23 17:33N 41°21' W 072°05'1010.1
2014-Nov-23 16:33N 41°12' W 072°12'4 3.8
2014-Nov-23 15:33N 41°09' W 072°14'10 9.7
2014-Nov-23 14:33N 41°17' W 072°06'5 4.6
2014-Nov-23 13:33N 41°21' W 072°06'9 8.9
2014-Nov-23 12:33N 41°13' W 072°11'5 4.9
2014-Nov-23 11:33N 41°09' W 072°14'0 0.0
2014-Nov-23 02:06N 41°09' W 072°14'2 3.1
2014-Nov-23 01:33N 41°11' W 072°14'1212.2
2014-Nov-23 00:33N 41°21' W 072°05'0 0.3
2014-Nov-22 23:33N 41°21' W 072°06'9 9.4
2014-Nov-22 22:33N 41°13' W 072°11'5 4.5
2014-Nov-22 21:33N 41°09' W 072°14'8 8.4
2014-Nov-22 20:33N 41°16' W 072°08'6 5.7
2014-Nov-22 19:33N 41°21' W 072°06'10 9.6
2014-Nov-22 18:33N 41°13' W 072°11'4 4.3
2014-Nov-22 17:33N 41°09' W 072°14'9 9.1
2014-Nov-22 16:34N 41°16' W 072°07'5 5.1
2014-Nov-22 15:34N 41°21' W 072°06'9 8.9
2014-Nov-22 14:33N 41°13' W 072°10'5 5.0
2014-Nov-22 13:34N 41°09' W 072°14'8 8.0
2014-Nov-22 12:33N 41°16' W 072°08'6 6.0
2014-Nov-22 11:33N 41°21' W 072°06'0 0.0
2014-Nov-22 01:27N 41°21' W 072°06'9 9.6
2014-Nov-22 00:34N 41°13' W 072°10'5 5.4
2014-Nov-21 23:34N 41°09' W 072°14'9 9.2
2014-Nov-21 22:33N 41°16' W 072°07'5 5.0
2014-Nov-21 21:34N 41°21' W 072°06'10 9.7
2014-Nov-21 20:33N 41°12' W 072°11'4 4.2
2014-Nov-21 19:33N 41°09' W 072°14'9 8.8
2014-Nov-21 18:33N 41°16' W 072°07'5 5.4
2014-Nov-21 17:33N 41°21' W 072°06'9 8.8
2014-Nov-21 16:33N 41°13' W 072°10'5 5.2
2014-Nov-21 15:34N 41°09' W 072°14'9 9.1
2014-Nov-21 14:33N 41°16' W 072°06'5 5.4
2014-Nov-21 13:33N 41°21' W 072°06'10 9.7
2014-Nov-21 12:33N 41°13' W 072°11'4 4.2
2014-Nov-21 11:34N 41°09' W 072°14'2 0.2
2014-Nov-21 01:33N 41°09' W 072°12'8 8.4
2014-Nov-21 00:33N 41°16' W 072°06'5 5.2
2014-Nov-20 23:33N 41°21' W 072°06'10 9.9
2014-Nov-20 22:33N 41°12' W 072°11'4 4.0
2014-Nov-20 21:34N 41°09' W 072°14'9 9.3
2014-Nov-20 20:33N 41°16' W 072°07'5 5.0
2014-Nov-20 19:33N 41°21' W 072°06'0 0.0
2014-Nov-20 18:33N 41°21' W 072°06'0 0.0
2014-Nov-20 17:33N 41°21' W 072°06'0 0.0
2014-Nov-20 16:33N 41°21' W 072°06'0 0.0
2014-Nov-20 15:33N 41°21' W 072°06'9 8.8
2014-Nov-20 14:33N 41°13' W 072°10'5 5.1
2014-Nov-20 13:33N 41°09' W 072°14'9 9.3
2014-Nov-20 12:33N 41°17' W 072°07'5 4.8
2014-Nov-20 11:33N 41°21' W 072°06'0 0.0
2014-Nov-20 01:32N 41°21' W 072°06'9 9.1
2014-Nov-20 00:34N 41°13' W 072°10'5 5.1
2014-Nov-19 23:33N 41°09' W 072°14'9 8.8
2014-Nov-19 22:33N 41°16' W 072°07'5 5.3
2014-Nov-19 21:33N 41°21' W 072°06'9 8.9
2014-Nov-19 20:33N 41°13' W 072°10'5 5.1
2014-Nov-19 19:33N 41°09' W 072°14'9 8.6
2014-Nov-19 18:33N 41°16' W 072°07'5 5.4
2014-Nov-19 17:33N 41°21' W 072°06'10 9.8
2014-Nov-19 16:34N 41°12' W 072°11'3 2.8
2014-Nov-19 15:33N 41°11' W 072°14'1111.4
2014-Nov-19 14:34N 41°20' W 072°05'5 4.7
2014-Nov-19 13:33N 41°16' W 072°07'8 8.2
2014-Nov-19 12:33N 41°09' W 072°14'0 0.0
2014-Nov-19 01:33N 41°09' W 072°14'10 9.6
2014-Nov-19 00:33N 41°17' W 072°06'5 4.8
2014-Nov-18 23:33N 41°21' W 072°05'1010.3
2014-Nov-18 22:33N 41°12' W 072°12'4 3.6
2014-Nov-18 21:34N 41°09' W 072°14'9 9.3
2014-Nov-18 20:33N 41°16' W 072°07'5 4.9
2014-Nov-18 19:34N 41°21' W 072°06'9 8.6
2014-Nov-18 18:33N 41°13' W 072°10'5 5.0
2014-Nov-18 17:33N 41°09' W 072°13'1010.1
2014-Nov-18 16:33N 41°17' W 072°05'5 4.6
2014-Nov-18 15:33N 41°21' W 072°05'1111.3
2014-Nov-18 14:34N 41°12' W 072°13'3 2.7
2014-Nov-18 13:33N 41°09' W 072°14'10 9.5
2014-Nov-18 12:33N 41°17' W 072°06'5 4.7
2014-Nov-18 11:34N 41°21' W 072°06'0 0.0
2014-Nov-18 01:30N 41°21' W 072°06'9 9.2
2014-Nov-18 00:33N 41°13' W 072°10'5 5.4
2014-Nov-17 23:33N 41°09' W 072°14'8 8.2
2014-Nov-17 22:33N 41°16' W 072°07'6 5.9
2014-Nov-17 21:33N 41°21' W 072°06'9 9.1
2014-Nov-17 20:33N 41°13' W 072°11'5 4.8
2014-Nov-17 19:33N 41°09' W 072°14'1010.2
2014-Nov-17 18:33N 41°17' W 072°06'4 4.1
2014-Nov-17 17:33N 41°21' W 072°06'9 9.4
2014-Nov-17 16:33N 41°13' W 072°11'3 3.2
2014-Nov-17 15:33N 41°10' W 072°13'1211.6
2014-Nov-17 14:33N 41°20' W 072°05'2 1.9
2014-Nov-17 13:33N 41°18' W 072°05'1111.3
2014-Nov-17 12:34N 41°09' W 072°14'0 0.2
2014-Nov-17 11:33N 41°09' W 072°14'0 0.0
2014-Nov-17 02:34N 41°09' W 072°14'9 9.0
2014-Nov-17 01:33N 41°16' W 072°07'5 5.2
2014-Nov-17 00:33N 41°21' W 072°06'9 9.3
2014-Nov-16 23:33N 41°13' W 072°10'5 4.7
2014-Nov-16 22:33N 41°09' W 072°14'9 9.0
2014-Nov-16 21:33N 41°16' W 072°07'5 5.2
2014-Nov-16 20:34N 41°21' W 072°06'9 9.0
2014-Nov-16 19:34N 41°13' W 072°10'5 5.0
2014-Nov-16 18:33N 41°09' W 072°14'9 9.0
2014-Nov-16 17:33N 41°16' W 072°07'5 5.1
2014-Nov-16 16:33N 41°21' W 072°06'9 9.2
2014-Nov-16 15:34N 41°13' W 072°10'5 4.8
2014-Nov-16 14:34N 41°09' W 072°14'1110.7
2014-Nov-16 13:33N 41°18' W 072°06'4 3.7
2014-Nov-16 12:33N 41°21' W 072°06'3 0.2
2014-Nov-16 01:33N 41°19' W 072°05'1211.8
2014-Nov-16 00:33N 41°09' W 072°14'0 0.1
2014-Nov-15 23:33N 41°09' W 072°14'  

Dump ship's entire track history